Terminal Aerodrome Forecast
Issued by NWS

Home | Current Version | Previous Version | Text Only | Print | Product List | Glossary Off
Versions: 1 2 3 4 5 6 7 8 9 10 11 12 13 14 15 16

000
FTUS42 KMHX 240227 AAA
TAFOAJ
TAF AMD
KOAJ 240227Z 2402/2424 VRB05KT P6SM BKN025
     FM240400 21007KT P6SM SCT025 BKN200
     FM240900 21007KT P6SM SCT025 BKN080
     FM241500 21010G18KT P6SM -SHRA VCTS BKN050CB
      AMD LTD TO CLD VIS AND WIND=

USA.gov is the U.S. government's official web portal to all federal, state and local government web resources and services.